createdAt,value
2022-09-11T00:00:12.218Z,46.69
2022-09-11T00:01:12.223Z,45.79
2022-09-11T00:02:12.251Z,46.59
2022-09-11T00:03:12.184Z,46.69
2022-09-11T00:04:12.194Z,46.59
2022-09-11T00:05:12.161Z,46.39
2022-09-11T00:06:12.153Z,46.59
2022-09-11T00:07:12.170Z,46.09
2022-09-11T00:08:12.129Z,46.00
2022-09-11T00:09:12.117Z,46.49
2022-09-11T00:10:12.108Z,46.09
2022-09-11T00:11:12.095Z,46.09
2022-09-11T00:12:12.085Z,46.00
2022-09-11T00:13:12.080Z,46.09
2022-09-11T00:14:12.063Z,46.09
2022-09-11T00:15:12.052Z,46.09
2022-09-11T00:16:12.093Z,46.09
2022-09-11T00:17:12.032Z,46.19
2022-09-11T00:18:12.017Z,46.00
2022-09-11T00:19:12.012Z,46.19
2022-09-11T00:20:12.064Z,46.09
2022-09-11T00:21:11.985Z,45.90
2022-09-11T00:22:11.975Z,46.09
2022-09-11T00:23:11.963Z,46.12
2022-09-11T00:24:11.952Z,46.00
2022-09-11T00:25:12.441Z,45.90
2022-09-11T00:26:11.930Z,45.90
2022-09-11T00:27:11.919Z,45.92
2022-09-11T00:28:11.909Z,46.22
2022-09-11T00:29:11.898Z,45.92
2022-09-11T00:30:11.887Z,46.02
2022-09-11T00:31:11.929Z,46.19
2022-09-11T00:32:11.865Z,46.19
2022-09-11T00:33:11.854Z,46.02
2022-09-11T00:34:11.843Z,46.00
2022-09-11T00:35:11.833Z,45.92
2022-09-11T00:36:11.841Z,46.02
2022-09-11T00:37:11.836Z,46.02
2022-09-11T00:38:16.635Z,46.00
2022-09-11T00:39:12.788Z,46.02
2022-09-11T00:40:11.836Z,46.02
2022-09-11T00:41:11.765Z,46.02
2022-09-11T00:42:11.757Z,45.92
2022-09-11T00:43:11.774Z,45.70
2022-09-11T00:44:11.732Z,46.02
2022-09-11T00:45:11.722Z,46.22
2022-09-11T00:46:11.765Z,46.02
2022-09-11T00:47:11.699Z,46.02
2022-09-11T00:48:11.687Z,45.92
2022-09-11T00:49:11.682Z,46.12
2022-09-11T00:50:11.666Z,45.92
2022-09-11T00:51:11.655Z,45.82
2022-09-11T00:52:11.663Z,45.79
2022-09-11T00:53:11.638Z,45.90
2022-09-11T00:54:11.622Z,45.82
2022-09-11T00:55:11.617Z,46.31
2022-09-11T00:56:11.600Z,46.02
2022-09-11T00:57:11.591Z,46.02
2022-09-11T00:58:11.577Z,46.22
2022-09-11T00:59:11.567Z,45.82
2022-09-11T01:00:11.555Z,46.12
2022-09-11T01:01:11.609Z,46.09
2022-09-11T01:02:11.553Z,45.92
2022-09-11T01:03:11.523Z,46.22
2022-09-11T01:04:11.511Z,45.92
2022-09-11T01:05:11.503Z,46.12
2022-09-11T01:06:11.491Z,45.92
2022-09-11T01:07:11.504Z,46.22
2022-09-11T01:08:11.504Z,46.12
2022-09-11T01:09:11.472Z,46.02
2022-09-11T01:10:11.446Z,45.82
2022-09-11T01:11:11.437Z,45.79
2022-09-11T01:12:11.423Z,46.02
2022-09-11T01:13:11.429Z,46.22
2022-09-11T01:14:11.430Z,46.12
2022-09-11T01:15:11.393Z,46.19
2022-09-11T01:16:11.401Z,46.02
2022-09-11T01:17:11.367Z,46.22
2022-09-11T01:18:11.358Z,45.92
2022-09-11T01:19:11.376Z,46.00
2022-09-11T01:20:11.336Z,46.31
2022-09-11T01:21:11.324Z,46.22
2022-09-11T01:22:11.314Z,45.92
2022-09-11T01:23:11.302Z,46.30
2022-09-11T01:24:11.313Z,46.02
2022-09-11T01:25:11.287Z,46.22
2022-09-11T01:26:11.269Z,46.22
2022-09-11T01:27:11.264Z,46.22
2022-09-11T01:28:11.247Z,45.92
2022-09-11T01:29:11.237Z,46.02
2022-09-11T01:30:11.962Z,46.02
2022-09-11T01:31:11.285Z,46.42
2022-09-11T01:32:11.204Z,45.92
2022-09-11T01:33:11.193Z,46.31
2022-09-11T01:34:11.181Z,46.02
2022-09-11T01:35:11.172Z,46.22
2022-09-11T01:36:11.160Z,45.82
2022-09-11T01:37:11.157Z,46.02
2022-09-11T01:38:11.136Z,46.42
2022-09-11T01:39:11.127Z,46.22
2022-09-11T01:40:11.195Z,46.31
2022-09-11T01:41:11.103Z,46.42
2022-09-11T01:42:11.094Z,46.51
2022-09-11T01:43:11.087Z,46.22
2022-09-11T01:44:11.073Z,46.31
2022-09-11T01:45:11.059Z,46.51
2022-09-11T01:46:11.048Z,46.51
2022-09-11T01:47:11.038Z,46.02
2022-09-11T01:48:11.027Z,45.82
2022-09-11T01:49:11.032Z,45.82
2022-09-11T01:50:11.004Z,46.22
2022-09-11T01:51:10.998Z,45.82
2022-09-11T01:52:10.982Z,45.82
2022-09-11T01:53:10.971Z,45.82
2022-09-11T01:54:10.961Z,45.92
2022-09-11T01:55:10.978Z,45.62
2022-09-11T01:56:10.967Z,46.31
2022-09-11T01:57:10.927Z,46.51
2022-09-11T01:58:10.915Z,45.82
2022-09-11T01:59:10.905Z,46.42
2022-09-11T02:00:10.893Z,45.82
2022-09-11T02:01:11.021Z,45.92
2022-09-11T02:02:10.972Z,46.51
2022-09-11T02:03:10.861Z,45.82
2022-09-11T02:04:10.850Z,46.02
2022-09-11T02:05:10.841Z,46.51
2022-09-11T02:06:10.828Z,45.82
2022-09-11T02:07:10.823Z,45.62
2022-09-11T02:08:10.808Z,45.92
2022-09-11T02:09:10.794Z,46.02
2022-09-11T02:10:10.784Z,45.82
2022-09-11T02:11:10.775Z,45.82
2022-09-11T02:12:10.783Z,46.42
2022-09-11T02:13:10.758Z,46.42
2022-09-11T02:14:10.739Z,45.82
2022-09-11T02:15:10.728Z,45.92
2022-09-11T02:16:10.801Z,46.42
2022-09-11T02:17:10.707Z,45.92
2022-09-11T02:18:10.696Z,45.82
2022-09-11T02:19:10.705Z,46.51
2022-09-11T02:20:10.673Z,46.51
2022-09-11T02:21:10.664Z,46.22
2022-09-11T02:22:10.652Z,46.02
2022-09-11T02:23:10.641Z,46.02
2022-09-11T02:24:10.630Z,45.82
2022-09-11T02:25:10.626Z,46.12
2022-09-11T02:26:10.607Z,45.92
2022-09-11T02:27:10.597Z,46.02
2022-09-11T02:28:10.605Z,45.82
2022-09-11T02:29:10.574Z,45.62
2022-09-11T02:30:10.563Z,45.82
2022-09-11T02:31:10.620Z,46.51
2022-09-11T02:32:10.542Z,46.02
2022-09-11T02:33:10.529Z,46.71
2022-09-11T02:34:10.519Z,46.51
2022-09-11T02:35:10.508Z,46.22
2022-09-11T02:36:10.498Z,46.31
2022-09-11T02:37:10.509Z,46.61
2022-09-11T02:38:10.476Z,45.72
2022-09-11T02:39:10.464Z,45.82
2022-09-11T02:40:10.538Z,46.51
2022-09-11T02:41:10.443Z,45.62
2022-09-11T02:42:10.432Z,46.51
2022-09-11T02:43:10.426Z,46.61
2022-09-11T02:44:10.431Z,45.82
2022-09-11T02:45:10.397Z,46.12
2022-09-11T02:46:10.387Z,46.12
2022-09-11T02:47:10.376Z,46.42
2022-09-11T02:48:10.368Z,46.02
2022-09-11T02:49:10.362Z,46.02
2022-09-11T02:50:10.343Z,46.51
2022-09-11T02:51:10.331Z,46.31
2022-09-11T02:52:10.321Z,46.31
2022-09-11T02:53:10.310Z,45.82
2022-09-11T02:54:10.300Z,46.61
2022-09-11T02:55:10.310Z,45.52
2022-09-11T02:56:10.278Z,46.12
2022-09-11T02:57:10.265Z,46.61
2022-09-11T02:58:10.255Z,46.31
2022-09-11T02:59:10.243Z,46.61
2022-09-11T03:00:10.252Z,46.31
2022-09-11T03:01:10.286Z,45.52
2022-09-11T03:02:10.246Z,45.52
2022-09-11T03:03:10.200Z,46.22
2022-09-11T03:04:10.188Z,45.92
2022-09-11T03:05:10.177Z,46.61
2022-09-11T03:06:10.166Z,46.61
2022-09-11T03:07:10.187Z,46.61
2022-09-11T03:08:10.144Z,46.12
2022-09-11T03:09:10.133Z,46.22
2022-09-11T03:10:10.121Z,46.31
2022-09-11T03:11:10.110Z,46.12
2022-09-11T03:12:10.105Z,45.72
2022-09-11T03:13:10.095Z,46.02
2022-09-11T03:14:10.078Z,45.72
2022-09-11T03:15:10.068Z,45.72
2022-09-11T03:16:10.165Z,46.22
2022-09-11T03:17:10.050Z,46.22
2022-09-11T03:18:10.033Z,46.22
2022-09-11T03:19:10.029Z,45.62
2022-09-11T03:20:10.022Z,45.62
2022-09-11T03:21:10.000Z,46.24
2022-09-11T03:22:09.989Z,45.62
2022-09-11T03:23:09.978Z,46.02
2022-09-11T03:24:09.966Z,46.61
2022-09-11T03:25:09.963Z,46.12
2022-09-11T03:26:09.946Z,46.51
2022-09-11T03:27:09.935Z,46.61
2022-09-11T03:28:09.922Z,45.82
2022-09-11T03:29:09.911Z,46.51
2022-09-11T03:30:09.903Z,45.72
2022-09-11T03:31:10.053Z,45.72
2022-09-11T03:32:09.900Z,45.72
2022-09-11T03:33:09.868Z,46.02
2022-09-11T03:34:09.859Z,45.72
2022-09-11T03:35:09.846Z,45.62
2022-09-11T03:36:09.835Z,46.51
2022-09-11T03:37:09.842Z,45.82
2022-09-11T03:38:09.813Z,46.51
2022-09-11T03:39:09.802Z,46.02
2022-09-11T03:40:09.848Z,45.82
2022-09-11T03:41:09.780Z,45.62
2022-09-11T03:42:09.769Z,46.12
2022-09-11T03:43:09.807Z,46.02
2022-09-11T03:44:09.747Z,46.12
2022-09-11T03:45:09.736Z,46.12
2022-09-11T03:46:09.726Z,46.22
2022-09-11T03:47:09.713Z,45.72
2022-09-11T03:48:09.723Z,45.52
2022-09-11T03:49:09.697Z,45.72
2022-09-11T03:50:09.683Z,46.12
2022-09-11T03:51:09.671Z,45.62
2022-09-11T03:52:09.658Z,46.02
2022-09-11T03:53:09.648Z,45.62
2022-09-11T03:54:09.637Z,45.82
2022-09-11T03:55:09.632Z,45.62
2022-09-11T03:56:09.617Z,45.72
2022-09-11T03:57:09.604Z,45.82
2022-09-11T03:58:09.594Z,46.51
2022-09-11T03:59:09.582Z,46.12
2022-09-11T04:00:09.576Z,45.72
2022-09-11T04:01:09.624Z,45.62
2022-09-11T04:02:09.597Z,46.22
2022-09-11T04:03:09.539Z,45.84
2022-09-11T04:04:09.548Z,45.72
2022-09-11T04:05:09.514Z,46.51
2022-09-11T04:06:09.506Z,45.72
2022-09-11T04:07:09.513Z,45.82
2022-09-11T04:08:09.484Z,45.82
2022-09-11T04:09:09.470Z,45.72
2022-09-11T04:10:09.460Z,46.02
2022-09-11T04:11:09.452Z,46.31
2022-09-11T04:12:09.441Z,45.72
2022-09-11T04:13:09.443Z,46.02
2022-09-11T04:14:09.416Z,45.72
2022-09-11T04:15:09.407Z,45.84
2022-09-11T04:16:09.410Z,45.72
2022-09-11T04:17:09.382Z,45.84
2022-09-11T04:18:09.378Z,46.22
2022-09-11T04:19:09.392Z,45.72
2022-09-11T04:20:09.371Z,45.72
2022-09-11T04:21:09.339Z,45.82
2022-09-11T04:22:09.328Z,45.74
2022-09-11T04:23:09.322Z,45.92
2022-09-11T04:24:09.305Z,45.82
2022-09-11T04:25:09.300Z,45.72
2022-09-11T04:26:09.283Z,45.82
2022-09-11T04:27:09.273Z,46.53
2022-09-11T04:28:09.262Z,45.84
2022-09-11T04:29:09.252Z,45.82
2022-09-11T04:30:09.240Z,45.64
2022-09-11T04:31:09.236Z,45.64
2022-09-11T04:32:09.218Z,45.74
2022-09-11T04:33:09.209Z,45.74
2022-09-11T04:34:09.201Z,46.14
2022-09-11T04:35:09.187Z,45.64
2022-09-11T04:36:09.196Z,45.74
2022-09-11T04:37:09.183Z,45.94
2022-09-11T04:38:09.151Z,45.82
2022-09-11T04:39:09.144Z,45.74
2022-09-11T04:40:09.178Z,45.72
2022-09-11T04:41:09.118Z,46.22
2022-09-11T04:42:09.109Z,45.72
2022-09-11T04:43:09.129Z,45.74
2022-09-11T04:44:09.088Z,46.02
2022-09-11T04:45:09.074Z,46.24
2022-09-11T04:46:09.063Z,45.72
2022-09-11T04:47:09.051Z,45.74
2022-09-11T04:48:09.041Z,46.04
2022-09-11T04:49:09.037Z,46.31
2022-09-11T04:50:09.020Z,45.62
2022-09-11T04:51:09.007Z,45.54
2022-09-11T04:52:09.018Z,45.62
2022-09-11T04:53:08.987Z,46.02
2022-09-11T04:54:08.975Z,45.64
2022-09-11T04:55:08.993Z,46.24
2022-09-11T04:56:08.953Z,46.61
2022-09-11T04:57:08.941Z,46.24
2022-09-11T04:58:08.932Z,45.62
2022-09-11T04:59:08.919Z,46.12
2022-09-11T05:00:08.910Z,45.54
2022-09-11T05:01:09.011Z,46.14
2022-09-11T05:02:08.907Z,46.61
2022-09-11T05:03:08.875Z,45.84
2022-09-11T05:04:08.864Z,45.72
2022-09-11T05:05:08.853Z,46.12
2022-09-11T05:06:08.843Z,46.22
2022-09-11T05:07:08.838Z,46.04
2022-09-11T05:08:08.841Z,46.31
2022-09-11T05:09:08.810Z,46.61
2022-09-11T05:10:08.798Z,46.64
2022-09-11T05:11:08.789Z,46.14
2022-09-11T05:12:08.778Z,46.64
2022-09-11T05:13:08.786Z,46.64
2022-09-11T05:14:08.754Z,46.24
2022-09-11T05:15:08.742Z,45.82
2022-09-11T05:16:08.808Z,46.64
2022-09-11T05:17:08.720Z,45.92
2022-09-11T05:18:08.710Z,45.82
2022-09-11T05:19:08.715Z,45.84
2022-09-11T05:20:11.798Z,45.82
2022-09-11T05:21:08.677Z,45.92
2022-09-11T05:22:08.667Z,45.82
2022-09-11T05:23:08.656Z,45.92
2022-09-11T05:24:08.687Z,46.44
2022-09-11T05:25:08.640Z,46.42
2022-09-11T05:26:08.623Z,46.12
2022-09-11T05:27:08.611Z,46.02
2022-09-11T05:28:08.600Z,46.22
2022-09-11T05:29:08.590Z,46.22
2022-09-11T05:30:08.578Z,46.42
2022-09-11T05:31:08.597Z,46.22
2022-09-11T05:32:08.555Z,46.22
2022-09-11T05:33:08.544Z,46.31
2022-09-11T05:34:08.535Z,46.22
2022-09-11T05:35:08.524Z,46.42
2022-09-11T05:36:08.512Z,46.02
2022-09-11T05:37:08.511Z,45.92
2022-09-11T05:38:08.491Z,46.02
2022-09-11T05:39:08.478Z,45.82
2022-09-11T05:40:08.525Z,45.72
2022-09-11T05:41:08.457Z,45.92
2022-09-11T05:42:08.448Z,45.72
2022-09-11T05:43:08.441Z,46.22
2022-09-11T05:44:08.431Z,46.22
2022-09-11T05:45:08.412Z,46.81
2022-09-11T05:46:08.451Z,45.92
2022-09-11T05:47:08.392Z,46.12
2022-09-11T05:48:08.379Z,46.12
2022-09-11T05:49:08.390Z,46.02
2022-09-11T05:50:08.358Z,46.61
2022-09-11T05:51:08.346Z,46.42
2022-09-11T05:52:08.335Z,46.02
2022-09-11T05:53:08.324Z,46.61
2022-09-11T05:54:08.312Z,46.02
2022-09-11T05:55:08.317Z,45.82
2022-09-11T05:56:08.313Z,46.51
2022-09-11T05:57:08.281Z,46.51
2022-09-11T05:58:08.268Z,46.22
2022-09-11T05:59:08.258Z,46.22
2022-09-11T06:00:08.247Z,46.42
2022-09-11T06:01:08.298Z,46.22
2022-09-11T06:02:08.237Z,46.31
2022-09-11T06:03:09.846Z,46.42
2022-09-11T06:04:08.203Z,46.31
2022-09-11T06:05:08.191Z,45.72
2022-09-11T06:06:08.180Z,46.12
2022-09-11T06:07:08.175Z,45.72
2022-09-11T06:08:08.159Z,45.62
2022-09-11T06:09:08.147Z,46.49
2022-09-11T06:10:08.137Z,46.02
2022-09-11T06:11:08.125Z,46.42
2022-09-11T06:12:08.135Z,46.42
2022-09-11T06:13:08.134Z,46.02
2022-09-11T06:14:08.096Z,45.72
2022-09-11T06:15:16.629Z,46.22
2022-09-11T06:16:09.112Z,46.22
2022-09-11T06:17:08.060Z,46.42
2022-09-11T06:18:08.049Z,45.72
2022-09-11T06:19:08.058Z,46.31
2022-09-11T06:20:08.026Z,46.42
2022-09-11T06:21:08.014Z,46.42
2022-09-11T06:22:08.003Z,46.22
2022-09-11T06:23:09.411Z,46.02
2022-09-11T06:24:07.981Z,46.22
2022-09-11T06:25:07.978Z,46.31
2022-09-11T06:26:07.960Z,46.22
2022-09-11T06:27:07.949Z,46.42
2022-09-11T06:28:07.956Z,45.82
2022-09-11T06:29:07.927Z,46.42
2022-09-11T06:30:07.917Z,46.42
2022-09-11T06:31:08.029Z,45.72
2022-09-11T06:32:07.895Z,46.42
2022-09-11T06:33:07.882Z,46.22
2022-09-11T06:34:07.875Z,45.92
2022-09-11T06:35:07.861Z,45.62
2022-09-11T06:36:07.856Z,45.82
2022-09-11T06:37:07.846Z,45.72
2022-09-11T06:38:07.827Z,45.92
2022-09-11T06:39:07.818Z,46.31
2022-09-11T06:40:07.846Z,46.30
2022-09-11T06:41:07.795Z,45.82
2022-09-11T06:42:07.785Z,45.79
2022-09-11T06:43:07.779Z,45.92
2022-09-11T06:44:07.783Z,45.70
2022-09-11T06:45:07.750Z,46.42
2022-09-11T06:46:07.794Z,46.02
2022-09-11T06:47:07.728Z,46.02
2022-09-11T06:48:07.718Z,45.72
2022-09-11T06:49:07.728Z,46.02
2022-09-11T06:50:07.697Z,45.52
2022-09-11T06:51:07.689Z,46.42
2022-09-11T06:52:07.674Z,45.72
2022-09-11T06:53:07.662Z,45.92
2022-09-11T06:54:07.653Z,46.02
2022-09-11T06:55:07.687Z,45.52
2022-09-11T06:56:07.629Z,46.42
2022-09-11T06:57:07.619Z,45.52
2022-09-11T06:58:07.607Z,46.42
2022-09-11T06:59:07.596Z,46.42
2022-09-11T07:00:07.604Z,45.42
2022-09-11T07:01:07.662Z,45.72
2022-09-11T07:02:07.650Z,45.72
2022-09-11T07:03:07.553Z,45.72
2022-09-11T07:04:07.541Z,45.72
2022-09-11T07:05:07.530Z,46.30
2022-09-11T07:06:07.518Z,45.72
2022-09-11T07:07:07.526Z,45.92
2022-09-11T07:08:07.496Z,46.22
2022-09-11T07:09:07.487Z,45.90
2022-09-11T07:10:07.475Z,45.72
2022-09-11T07:11:07.464Z,46.02
2022-09-11T07:12:07.452Z,46.19
2022-09-11T07:13:07.448Z,46.02
2022-09-11T07:14:07.431Z,46.00
2022-09-11T07:15:07.420Z,45.90
2022-09-11T07:16:07.446Z,46.02
2022-09-11T07:17:07.399Z,45.92
2022-09-11T07:18:07.385Z,45.92
2022-09-11T07:19:07.404Z,45.82
2022-09-11T07:20:07.365Z,46.12
2022-09-11T07:21:07.352Z,45.23
2022-09-11T07:22:07.342Z,45.82
2022-09-11T07:23:07.331Z,45.92
2022-09-11T07:24:07.321Z,45.72
2022-09-11T07:25:07.882Z,45.92
2022-09-11T07:26:07.299Z,45.72
2022-09-11T07:27:07.287Z,45.79
2022-09-11T07:28:07.276Z,45.82
2022-09-11T07:29:07.266Z,45.72
2022-09-11T07:30:07.255Z,45.82
2022-09-11T07:31:07.377Z,45.82
2022-09-11T07:32:07.254Z,45.72
2022-09-11T07:33:07.220Z,45.79
2022-09-11T07:34:07.209Z,45.82
2022-09-11T07:35:07.200Z,45.90
2022-09-11T07:36:07.188Z,45.72
2022-09-11T07:37:07.183Z,45.79
2022-09-11T07:38:07.169Z,45.62
2022-09-11T07:39:07.155Z,45.70
2022-09-11T07:40:07.212Z,45.92
2022-09-11T07:41:07.134Z,45.90
2022-09-11T07:42:07.121Z,45.72
2022-09-11T07:43:07.127Z,46.09
2022-09-11T07:44:07.101Z,45.90
2022-09-11T07:45:07.089Z,45.60
2022-09-11T07:46:07.110Z,46.09
2022-09-11T07:47:07.068Z,46.00
2022-09-11T07:48:07.076Z,46.00
2022-09-11T07:49:07.050Z,45.50
2022-09-11T07:50:07.035Z,45.79
2022-09-11T07:51:07.023Z,45.50
2022-09-11T07:52:07.011Z,45.50
2022-09-11T07:53:07.000Z,45.78
2022-09-11T07:54:06.990Z,45.57
2022-09-11T07:55:06.988Z,45.18
2022-09-11T07:56:06.967Z,45.10
2022-09-11T07:57:06.961Z,45.57
2022-09-11T07:58:06.946Z,45.87
2022-09-11T07:59:06.934Z,45.18
2022-09-11T08:00:06.923Z,44.68
2022-09-11T08:01:07.041Z,44.49
2022-09-11T08:02:06.918Z,44.78
2022-09-11T08:03:06.890Z,45.18
2022-09-11T08:04:06.965Z,44.98
2022-09-11T08:05:06.869Z,44.56
2022-09-11T08:06:06.858Z,44.59
2022-09-11T08:07:06.875Z,44.89
2022-09-11T08:08:06.835Z,44.49
2022-09-11T08:09:06.823Z,44.67
2022-09-11T08:10:26.061Z,44.89
2022-09-11T08:11:07.800Z,44.89
2022-09-11T08:12:06.792Z,44.17
2022-09-11T08:13:09.417Z,44.68
2022-09-11T08:14:06.772Z,45.16
2022-09-11T08:15:06.758Z,44.98
2022-09-11T08:16:06.889Z,44.89
2022-09-11T08:17:06.736Z,45.18
2022-09-11T08:18:06.727Z,45.08
2022-09-11T08:19:06.729Z,44.17
2022-09-11T08:20:06.722Z,44.09
2022-09-11T08:21:09.645Z,44.07
2022-09-11T08:22:07.682Z,44.07
2022-09-11T08:23:06.672Z,44.27
2022-09-11T08:24:06.659Z,44.27
2022-09-11T08:25:06.656Z,44.27
2022-09-11T08:26:06.641Z,44.39
2022-09-11T08:27:06.626Z,44.37
2022-09-11T08:28:06.619Z,44.49
2022-09-11T08:29:06.604Z,44.46
2022-09-11T08:30:06.593Z,44.46
2022-09-11T08:31:06.639Z,44.46
2022-09-11T08:32:06.575Z,44.37
2022-09-11T08:33:06.560Z,44.67
2022-09-11T08:34:06.549Z,44.46
2022-09-11T08:35:06.538Z,44.56
2022-09-11T08:36:06.545Z,44.56
2022-09-11T08:37:06.545Z,44.67
2022-09-11T08:38:06.506Z,44.56
2022-09-11T08:39:06.495Z,44.56
2022-09-11T08:40:06.535Z,44.59
2022-09-11T08:41:06.472Z,44.56
2022-09-11T08:42:06.460Z,44.67
2022-09-11T08:43:06.471Z,44.59
2022-09-11T08:44:06.438Z,44.56
2022-09-11T08:45:06.427Z,44.46
2022-09-11T08:46:06.468Z,44.67
2022-09-11T08:47:06.405Z,45.06
2022-09-11T08:48:06.394Z,44.76
2022-09-11T08:49:06.389Z,44.56
2022-09-11T08:50:06.376Z,44.76
2022-09-11T08:51:06.364Z,44.56
2022-09-11T08:52:06.371Z,44.67
2022-09-11T08:53:10.899Z,44.96
2022-09-11T08:54:07.343Z,44.56
2022-09-11T08:55:06.317Z,44.56
2022-09-11T08:56:06.307Z,44.46
2022-09-11T08:57:06.296Z,44.67
2022-09-11T08:58:06.285Z,44.56
2022-09-11T08:59:06.276Z,44.56
2022-09-11T09:00:06.272Z,44.67
2022-09-11T09:01:06.326Z,44.76
2022-09-11T09:02:06.258Z,44.37
2022-09-11T09:03:06.233Z,44.96
2022-09-11T09:04:06.219Z,44.46
2022-09-11T09:05:06.212Z,44.76
2022-09-11T09:06:06.717Z,44.46
2022-09-11T09:07:06.187Z,44.46
2022-09-11T09:08:06.194Z,44.56
2022-09-11T09:09:06.163Z,44.56
2022-09-11T09:10:06.153Z,44.37
2022-09-11T09:11:06.146Z,44.56
2022-09-11T09:12:06.139Z,44.56
2022-09-11T09:13:06.119Z,44.56
2022-09-11T09:14:06.110Z,44.67
2022-09-11T09:15:06.099Z,44.76
2022-09-11T09:16:06.138Z,44.76
2022-09-11T09:17:06.078Z,44.96
2022-09-11T09:18:06.084Z,44.37
2022-09-11T09:19:06.054Z,44.46
2022-09-11T09:20:06.042Z,44.37
2022-09-11T09:21:06.031Z,44.37
2022-09-11T09:22:06.020Z,44.27
2022-09-11T09:23:06.015Z,44.09
2022-09-11T09:24:06.028Z,44.17
2022-09-11T09:25:05.990Z,44.86
2022-09-11T09:26:05.977Z,44.09
2022-09-11T09:27:05.966Z,45.08
2022-09-11T09:28:05.954Z,45.16
2022-09-11T09:29:05.944Z,44.68
2022-09-11T09:30:05.939Z,44.89
2022-09-11T09:31:05.980Z,44.86
2022-09-11T09:32:05.910Z,44.07
2022-09-11T09:33:08.337Z,44.29
2022-09-11T09:34:06.887Z,44.17
2022-09-11T09:35:05.877Z,44.46
2022-09-11T09:36:05.873Z,44.46
2022-09-11T09:37:05.857Z,44.37
2022-09-11T09:38:05.845Z,44.37
2022-09-11T09:39:05.835Z,44.37
2022-09-11T09:40:05.872Z,44.76
2022-09-11T09:41:05.812Z,44.76
2022-09-11T09:42:05.834Z,44.46
2022-09-11T09:43:05.790Z,44.56
2022-09-11T09:44:05.781Z,44.56
2022-09-11T09:45:05.767Z,45.06
2022-09-11T09:46:05.814Z,44.86
2022-09-11T09:47:05.744Z,44.67
2022-09-11T09:48:05.741Z,44.67
2022-09-11T09:49:05.723Z,44.27
2022-09-11T09:50:05.712Z,44.27
2022-09-11T09:51:05.702Z,44.54
2022-09-11T09:52:05.690Z,44.56
2022-09-11T09:53:05.680Z,44.37
2022-09-11T09:54:05.689Z,44.37
2022-09-11T09:55:05.658Z,44.45
2022-09-11T09:56:05.664Z,44.15
2022-09-11T09:57:05.635Z,43.95
2022-09-11T09:58:05.625Z,44.64
2022-09-11T09:59:05.617Z,44.15
2022-09-11T10:00:05.619Z,43.95
2022-09-11T10:01:05.641Z,44.54
2022-09-11T10:02:05.692Z,43.95
2022-09-11T10:03:05.570Z,43.95
2022-09-11T10:04:05.559Z,43.95
2022-09-11T10:05:05.547Z,43.95
2022-09-11T10:06:05.544Z,44.45
2022-09-11T10:07:05.525Z,43.95
2022-09-11T10:08:05.515Z,44.45
2022-09-11T10:09:05.504Z,44.24
2022-09-11T10:10:05.496Z,44.15
2022-09-11T10:11:05.482Z,43.95
2022-09-11T10:12:05.514Z,44.24
2022-09-11T10:13:18.954Z,44.15
2022-09-11T10:14:10.152Z,44.05
2022-09-11T10:15:06.438Z,44.05
2022-09-11T10:16:05.460Z,44.45
2022-09-11T10:17:05.417Z,44.45
2022-09-11T10:18:05.434Z,44.05
2022-09-11T10:19:05.394Z,44.24
2022-09-11T10:20:05.386Z,44.15
2022-09-11T10:21:08.483Z,44.54
2022-09-11T10:22:05.361Z,44.24
2022-09-11T10:23:05.350Z,44.15
2022-09-11T10:24:05.345Z,44.24
2022-09-11T10:25:05.327Z,44.05
2022-09-11T10:26:05.317Z,43.65
2022-09-11T10:27:05.312Z,43.73
2022-09-11T10:28:05.329Z,43.63
2022-09-11T10:29:05.286Z,43.83
2022-09-11T10:30:05.280Z,43.53
2022-09-11T10:31:05.348Z,43.63
2022-09-11T10:32:05.256Z,43.83
2022-09-11T10:33:05.241Z,43.73
2022-09-11T10:34:05.231Z,43.65
2022-09-11T10:35:05.231Z,43.95
2022-09-11T10:36:05.224Z,44.15
2022-09-11T10:37:05.196Z,42.62
2022-09-11T10:38:05.186Z,42.11
2022-09-11T10:39:05.178Z,42.92
2022-09-11T10:40:05.259Z,42.29
2022-09-11T10:41:05.153Z,41.95
2022-09-11T10:42:05.146Z,40.23
2022-09-11T10:43:05.130Z,39.62
2022-09-11T10:44:05.141Z,39.72
2022-09-11T10:45:05.109Z,39.70
2022-09-11T10:46:05.160Z,38.70
2022-09-11T10:47:05.085Z,38.68
2022-09-11T10:48:05.081Z,37.97
2022-09-11T10:49:05.065Z,37.46
2022-09-11T10:50:05.057Z,37.65
2022-09-11T10:51:05.043Z,37.34
2022-09-11T10:52:05.031Z,36.93
2022-09-11T10:53:05.023Z,37.01
2022-09-11T10:54:05.016Z,37.03
2022-09-11T10:55:04.998Z,38.03
2022-09-11T10:56:04.989Z,37.77
2022-09-11T10:57:04.976Z,38.58
2022-09-11T10:58:04.966Z,38.99
2022-09-11T10:59:04.955Z,38.62
2022-09-11T11:00:04.969Z,39.70
2022-09-11T11:01:05.038Z,39.92
2022-09-11T11:02:04.980Z,39.52
2022-09-11T11:03:04.913Z,40.03
2022-09-11T11:04:08.146Z,40.13
2022-09-11T11:05:05.894Z,40.15
2022-09-11T11:06:04.878Z,40.45
2022-09-11T11:07:04.868Z,40.74
2022-09-11T11:08:04.857Z,40.74
2022-09-11T11:09:04.848Z,40.86
2022-09-11T11:10:04.834Z,40.76
2022-09-11T11:11:04.838Z,40.86
2022-09-11T11:12:04.813Z,41.65
2022-09-11T11:13:04.802Z,41.77
2022-09-11T11:14:04.792Z,42.07
2022-09-11T11:15:04.780Z,41.67
2022-09-11T11:16:04.817Z,41.67
2022-09-11T11:17:04.875Z,42.16
2022-09-11T11:18:04.748Z,41.69
2022-09-11T11:19:04.737Z,41.99
2022-09-11T11:20:04.729Z,41.49
2022-09-11T11:21:04.716Z,42.19
2022-09-11T11:22:04.704Z,42.68
2022-09-11T11:23:04.703Z,42.29
2022-09-11T11:24:04.683Z,42.21
2022-09-11T11:25:04.671Z,42.30
2022-09-11T11:26:04.662Z,42.80
2022-09-11T11:27:04.743Z,42.90
2022-09-11T11:28:04.640Z,42.80
2022-09-11T11:29:04.634Z,42.80
2022-09-11T11:30:04.621Z,42.72
2022-09-11T11:31:04.628Z,43.19
2022-09-11T11:32:04.613Z,42.80
2022-09-11T11:33:04.583Z,43.02
2022-09-11T11:34:04.572Z,42.82
2022-09-11T11:35:04.567Z,43.12
2022-09-11T11:36:04.549Z,42.62
2022-09-11T11:37:04.605Z,43.12
2022-09-11T11:38:04.528Z,43.02
2022-09-11T11:39:04.520Z,42.70
2022-09-11T11:40:04.621Z,42.19
2022-09-11T11:41:04.502Z,42.38
2022-09-11T11:42:04.486Z,42.68
2022-09-11T11:43:04.474Z,42.14
2022-09-11T11:44:04.462Z,41.65
2022-09-11T11:45:04.457Z,40.35
2022-09-11T11:46:04.511Z,40.74
2022-09-11T11:47:04.451Z,40.74
2022-09-11T11:48:04.444Z,40.13
2022-09-11T11:49:04.408Z,40.01
2022-09-11T11:50:04.431Z,39.81
2022-09-11T11:51:04.387Z,39.72
2022-09-11T11:52:04.377Z,39.79
2022-09-11T11:53:04.380Z,40.19
2022-09-11T11:54:04.356Z,39.60
2022-09-11T11:55:04.345Z,39.60
2022-09-11T11:56:04.335Z,39.70
2022-09-11T11:57:04.322Z,39.68
2022-09-11T11:58:04.315Z,39.39
2022-09-11T11:59:04.309Z,39.18
2022-09-11T12:00:04.289Z,39.09
2022-09-11T12:01:04.279Z,39.07
2022-09-11T12:02:04.333Z,38.78
2022-09-11T12:03:04.259Z,39.07
2022-09-11T12:04:04.266Z,38.87
2022-09-11T12:05:04.243Z,38.70
2022-09-11T12:06:04.227Z,38.68
2022-09-11T12:07:04.216Z,38.60
2022-09-11T12:08:04.206Z,39.87
2022-09-11T12:09:04.195Z,39.87
2022-09-11T12:10:04.184Z,39.48
2022-09-11T12:11:04.203Z,39.79
2022-09-11T12:12:04.170Z,39.79
2022-09-11T12:13:04.155Z,39.60
2022-09-11T12:14:04.143Z,39.60
2022-09-11T12:15:04.130Z,39.60
2022-09-11T12:16:05.720Z,39.50
2022-09-11T12:17:04.130Z,39.70
2022-09-11T12:18:04.098Z,39.70
2022-09-11T12:19:04.092Z,39.60
2022-09-11T12:20:04.097Z,39.78
2022-09-11T12:21:04.068Z,39.70
2022-09-11T12:22:04.057Z,39.60
2022-09-11T12:23:04.066Z,39.70
2022-09-11T12:24:04.038Z,39.70
2022-09-11T12:25:04.031Z,39.70
2022-09-11T12:26:04.015Z,39.79
2022-09-11T12:27:04.004Z,39.50
2022-09-11T12:28:03.997Z,39.62
2022-09-11T12:29:03.988Z,39.79
2022-09-11T12:30:03.971Z,40.31
2022-09-11T12:31:04.001Z,40.21
2022-09-11T12:32:03.949Z,40.41
2022-09-11T12:33:03.939Z,40.51
2022-09-11T12:34:03.929Z,40.21
2022-09-11T12:35:03.926Z,39.72
2022-09-11T12:36:03.927Z,39.92
2022-09-11T12:37:03.895Z,40.33
2022-09-11T12:38:03.884Z,40.43
2022-09-11T12:39:03.873Z,40.62
2022-09-11T12:40:03.891Z,40.72
2022-09-11T12:41:03.882Z,40.62
2022-09-11T12:42:03.841Z,40.43
2022-09-11T12:43:07.451Z,40.84
2022-09-11T12:44:04.817Z,40.45
2022-09-11T12:45:03.808Z,40.35
2022-09-11T12:46:03.860Z,41.14
2022-09-11T12:47:03.792Z,41.83
2022-09-11T12:48:03.776Z,41.63
2022-09-11T12:49:21.475Z,41.63
2022-09-11T12:50:04.754Z,41.75
2022-09-11T12:51:03.743Z,41.55
2022-09-11T12:52:03.753Z,41.75